AFL7710 UWKD-URWW
Flight info
| Callsign | AFL7710 |
|---|---|
| Flight time | N/A |
| Altitude | 38000 |
| Route | SONUM1G SONUM T789 DAFOS P135 UROBO R807 RODUN RODUN1J |
| Aircraft | A320/M-SDE3FGHIRWY/LB1 |
Departure
| Time | 2026-05-07 20:17 |
|---|---|
| Airport | Kazan International Airport (UWKD) |
Arrival
| Time | N/A |
|---|---|
| Airport | Volgograd International Airport (URWW) |
| Time | Latitude | Longitude | Altitude | Speed | Heading |
|---|---|---|---|---|---|
| 2026-05-07 19:38 | 55.60669 | 49.29651 | 394 ft | 0 kts | 31° |
| 2026-05-07 20:07 | 55.60675 | 49.29656 | 393 ft | 3 kts | 30° |
| 2026-05-07 20:07 | 55.60711 | 49.29669 | 394 ft | 6 kts | 353° |
| 2026-05-07 20:07 | 55.60758 | 49.29605 | 392 ft | 11 kts | 311° |
| 2026-05-07 20:07 | 55.60801 | 49.29474 | 392 ft | 14 kts | 276° |
| 2026-05-07 20:08 | 55.60744 | 49.29346 | 392 ft | 16 kts | 218° |
| 2026-05-07 20:08 | 55.60640 | 49.29216 | 394 ft | 18 kts | 218° |
| 2026-05-07 20:08 | 55.60579 | 49.29012 | 392 ft | 21 kts | 267° |
| 2026-05-07 20:08 | 55.60589 | 49.28729 | 389 ft | 26 kts | 275° |
| 2026-05-07 20:09 | 55.60597 | 49.28653 | 388 ft | 2 kts | 287° |
| 2026-05-07 20:09 | 55.60605 | 49.28614 | 388 ft | 5 kts | 290° |
| 2026-05-07 20:09 | 55.60620 | 49.28556 | 388 ft | 6 kts | 298° |
| 2026-05-07 20:10 | 55.60677 | 49.28395 | 389 ft | 11 kts | 301° |
| 2026-05-07 20:10 | 55.60720 | 49.28277 | 390 ft | 13 kts | 303° |
| 2026-05-07 20:10 | 55.60775 | 49.28130 | 392 ft | 15 kts | 304° |
| 2026-05-07 20:10 | 55.60841 | 49.27957 | 392 ft | 19 kts | 306° |
| 2026-05-07 20:11 | 55.60927 | 49.27742 | 391 ft | 25 kts | 304° |
| 2026-05-07 20:11 | 55.61038 | 49.27461 | 389 ft | 31 kts | 305° |
| 2026-05-07 20:11 | 55.61169 | 49.27126 | 390 ft | 35 kts | 304° |
| 2026-05-07 20:11 | 55.61305 | 49.26774 | 391 ft | 34 kts | 305° |
| 2026-05-07 20:12 | 55.61439 | 49.26427 | 390 ft | 34 kts | 305° |
| 2026-05-07 20:12 | 55.61568 | 49.26087 | 391 ft | 33 kts | 305° |
| 2026-05-07 20:12 | 55.61698 | 49.25765 | 391 ft | 32 kts | 305° |
| 2026-05-07 20:12 | 55.61819 | 49.25448 | 388 ft | 21 kts | 303° |
| 2026-05-07 20:13 | 55.61810 | 49.25250 | 385 ft | 16 kts | 223° |
| 2026-05-07 20:13 | 55.61803 | 49.25241 | 384 ft | 0 kts | 220° |
| 2026-05-07 20:14 | 55.61803 | 49.25240 | 384 ft | 2 kts | 220° |
| 2026-05-07 20:14 | 55.61737 | 49.25162 | 369 ft | 20 kts | 203° |
| 2026-05-07 20:15 | 55.61657 | 49.25229 | 367 ft | 11 kts | 127° |
| 2026-05-07 20:15 | 55.61653 | 49.25238 | 364 ft | 0 kts | 127° |
| 2026-05-07 20:16 | 55.61646 | 49.25256 | 364 ft | 8 kts | 126° |
| 2026-05-07 20:16 | 55.61493 | 49.25644 | 369 ft | 77 kts | 124° |
| 2026-05-07 20:17 | 55.61058 | 49.26784 | 382 ft | 145 kts | 127° |
| 2026-05-07 20:17 | 55.60376 | 49.28557 | 477 ft | 200 kts | 123° |
| 2026-05-07 20:17 | 55.59533 | 49.30774 | 974 ft | 227 kts | 124° |
| 2026-05-07 20:17 | 55.58684 | 49.32940 | 2482 ft | 207 kts | 124° |
| 2026-05-07 20:18 | 55.57930 | 49.34937 | 3937 ft | 185 kts | 123° |
| 2026-05-07 20:18 | 55.57269 | 49.36727 | 5083 ft | 186 kts | 122° |
| 2026-05-07 20:18 | 55.56487 | 49.38900 | 5365 ft | 209 kts | 120° |